sensor_id;sensor_type;location;lat;lon;timestamp;pressure;altitude;pressure_sealevel;temperature;humidity
55347;BME280;41218;55.700;38.270;2023-09-19T00:00:32;100436.28;;;7.14;68.32
55347;BME280;41218;55.700;38.270;2023-09-19T00:05:35;100434.66;;;7.13;68.29
55347;BME280;41218;55.700;38.270;2023-09-19T00:10:37;100426.13;;;7.06;68.67
55347;BME280;41218;55.700;38.270;2023-09-19T00:15:43;100434.66;;;7.13;69.28
55347;BME280;41218;55.700;38.270;2023-09-19T00:20:48;100429.16;;;7.13;69.06
55347;BME280;41218;55.700;38.270;2023-09-19T00:25:49;100430.59;;;7.19;69.31
55347;BME280;41218;55.700;38.270;2023-09-19T00:30:50;100434.59;;;7.21;69.15
55347;BME280;41218;55.700;38.270;2023-09-19T00:35:53;100439.13;;;7.26;69.25
55347;BME280;41218;55.700;38.270;2023-09-19T00:40:54;100429.41;;;7.29;69.47
55347;BME280;41218;55.700;38.270;2023-09-19T00:45:57;100426.81;;;7.32;69.90
55347;BME280;41218;55.700;38.270;2023-09-19T00:50:59;100430.50;;;7.36;69.92
55347;BME280;41218;55.700;38.270;2023-09-19T00:56:05;100427.59;;;7.33;70.10
55347;BME280;41218;55.700;38.270;2023-09-19T01:01:10;100428.09;;;7.35;69.93
55347;BME280;41218;55.700;38.270;2023-09-19T01:06:12;100427.56;;;7.41;69.99
55347;BME280;41218;55.700;38.270;2023-09-19T01:11:21;100429.19;;;7.42;70.37
55347;BME280;41218;55.700;38.270;2023-09-19T01:21:44;100415.81;;;7.32;70.33
55347;BME280;41218;55.700;38.270;2023-09-19T01:27:06;100439.84;;;7.44;69.87
55347;BME280;41218;55.700;38.270;2023-09-19T01:32:20;100432.72;;;7.43;70.18
55347;BME280;41218;55.700;38.270;2023-09-19T01:37:22;100416.75;;;7.36;70.19
55347;BME280;41218;55.700;38.270;2023-09-19T01:42:42;100425.75;;;7.46;70.67
55347;BME280;41218;55.700;38.270;2023-09-19T01:47:52;100418.31;;;7.46;70.21
55347;BME280;41218;55.700;38.270;2023-09-19T01:53:06;100414.72;;;7.54;70.24
55347;BME280;41218;55.700;38.270;2023-09-19T01:58:23;100407.13;;;7.51;70.68
55347;BME280;41218;55.700;38.270;2023-09-19T02:03:28;100408.28;;;7.50;70.02
55347;BME280;41218;55.700;38.270;2023-09-19T02:08:29;100413.72;;;7.59;70.39
55347;BME280;41218;55.700;38.270;2023-09-19T02:13:31;100395.09;;;7.56;70.09
55347;BME280;41218;55.700;38.270;2023-09-19T02:18:32;100397.53;;;7.57;70.27
55347;BME280;41218;55.700;38.270;2023-09-19T02:23:35;100408.34;;;7.62;70.52
55347;BME280;41218;55.700;38.270;2023-09-19T02:28:36;100388.88;;;7.68;70.96
55347;BME280;41218;55.700;38.270;2023-09-19T02:33:36;100397.28;;;7.71;70.60
55347;BME280;41218;55.700;38.270;2023-09-19T02:38:37;100393.72;;;7.71;70.83
55347;BME280;41218;55.700;38.270;2023-09-19T02:43:37;100410.97;;;7.80;71.23
55347;BME280;41218;55.700;38.270;2023-09-19T02:48:39;100395.25;;;7.80;71.54
55347;BME280;41218;55.700;38.270;2023-09-19T02:53:39;100395.06;;;7.86;71.60
55347;BME280;41218;55.700;38.270;2023-09-19T02:58:40;100400.25;;;7.87;71.84
55347;BME280;41218;55.700;38.270;2023-09-19T03:03:41;100395.00;;;7.94;72.26
55347;BME280;41218;55.700;38.270;2023-09-19T03:08:42;100396.41;;;8.00;72.33
55347;BME280;41218;55.700;38.270;2023-09-19T03:13:42;100399.28;;;8.04;72.38
55347;BME280;41218;55.700;38.270;2023-09-19T03:18:46;100393.59;;;8.09;72.72
55347;BME280;41218;55.700;38.270;2023-09-19T03:23:47;100393.84;;;8.16;72.74
55347;BME280;41218;55.700;38.270;2023-09-19T03:28:48;100402.69;;;8.22;73.25
55347;BME280;41218;55.700;38.270;2023-09-19T03:33:49;100402.28;;;8.32;73.28
55347;BME280;41218;55.700;38.270;2023-09-19T03:38:50;100393.81;;;8.37;73.28
55347;BME280;41218;55.700;38.270;2023-09-19T03:43:50;100398.47;;;8.46;73.62
55347;BME280;41218;55.700;38.270;2023-09-19T03:48:52;100407.66;;;8.50;73.27
55347;BME280;41218;55.700;38.270;2023-09-19T03:53:53;100409.84;;;8.56;73.42
55347;BME280;41218;55.700;38.270;2023-09-19T03:58:53;100400.88;;;8.59;73.58
55347;BME280;41218;55.700;38.270;2023-09-19T04:03:54;100394.47;;;8.68;73.61
55347;BME280;41218;55.700;38.270;2023-09-19T04:08:54;100401.38;;;8.74;73.60
55347;BME280;41218;55.700;38.270;2023-09-19T04:13:57;100381.09;;;8.78;73.72
55347;BME280;41218;55.700;38.270;2023-09-19T04:18:58;100381.66;;;8.84;73.67
55347;BME280;41218;55.700;38.270;2023-09-19T04:23:59;100366.84;;;8.89;73.65
55347;BME280;41218;55.700;38.270;2023-09-19T04:29:00;100376.16;;;8.96;74.05
55347;BME280;41218;55.700;38.270;2023-09-19T04:34:01;100369.50;;;8.97;74.07
55347;BME280;41218;55.700;38.270;2023-09-19T04:39:05;100380.06;;;9.08;74.16
55347;BME280;41218;55.700;38.270;2023-09-19T04:44:06;100376.38;;;9.16;73.76
55347;BME280;41218;55.700;38.270;2023-09-19T04:49:06;100378.59;;;9.22;73.98
55347;BME280;41218;55.700;38.270;2023-09-19T04:54:09;100373.63;;;9.28;74.27
55347;BME280;41218;55.700;38.270;2023-09-19T04:59:09;100361.56;;;9.33;74.18
55347;BME280;41218;55.700;38.270;2023-09-19T05:04:10;100363.59;;;9.48;75.15
55347;BME280;41218;55.700;38.270;2023-09-19T05:09:12;100358.53;;;9.50;74.07
55347;BME280;41218;55.700;38.270;2023-09-19T05:14:13;100351.41;;;9.61;74.77
55347;BME280;41218;55.700;38.270;2023-09-19T05:19:14;100353.09;;;9.66;74.07
55347;BME280;41218;55.700;38.270;2023-09-19T05:24:14;100348.16;;;9.72;74.12
55347;BME280;41218;55.700;38.270;2023-09-19T05:29:17;100355.59;;;9.83;74.13
55347;BME280;41218;55.700;38.270;2023-09-19T05:34:17;100352.69;;;9.92;74.45
55347;BME280;41218;55.700;38.270;2023-09-19T05:39:18;100356.19;;;10.05;74.49
55347;BME280;41218;55.700;38.270;2023-09-19T05:44:18;100357.31;;;10.16;74.58
55347;BME280;41218;55.700;38.270;2023-09-19T05:49:19;100361.63;;;10.30;74.49
55347;BME280;41218;55.700;38.270;2023-09-19T05:54:22;100368.28;;;10.41;74.37
55347;BME280;41218;55.700;38.270;2023-09-19T05:59:22;100359.00;;;10.49;74.48
55347;BME280;41218;55.700;38.270;2023-09-19T06:04:23;100354.13;;;10.58;74.55
55347;BME280;41218;55.700;38.270;2023-09-19T06:09:23;100336.47;;;10.63;74.47
55347;BME280;41218;55.700;38.270;2023-09-19T06:14:24;100352.88;;;10.72;74.47
55347;BME280;41218;55.700;38.270;2023-09-19T06:19:24;100345.22;;;10.81;74.47
55347;BME280;41218;55.700;38.270;2023-09-19T06:24:26;100345.38;;;10.88;74.38
55347;BME280;41218;55.700;38.270;2023-09-19T06:29:26;100345.56;;;10.95;74.54
55347;BME280;41218;55.700;38.270;2023-09-19T06:34:27;100356.25;;;11.13;74.52
55347;BME280;41218;55.700;38.270;2023-09-19T06:39:27;100344.63;;;11.23;74.52
55347;BME280;41218;55.700;38.270;2023-09-19T06:44:28;100344.16;;;11.37;74.49
55347;BME280;41218;55.700;38.270;2023-09-19T06:49:30;100344.41;;;11.48;74.43
55347;BME280;41218;55.700;38.270;2023-09-19T06:54:31;100350.63;;;11.60;74.23
55347;BME280;41218;55.700;38.270;2023-09-19T06:59:31;100340.56;;;11.72;74.23
55347;BME280;41218;55.700;38.270;2023-09-19T07:04:32;100334.91;;;11.84;74.00
55347;BME280;41218;55.700;38.270;2023-09-19T07:09:33;100338.78;;;11.99;73.90
55347;BME280;41218;55.700;38.270;2023-09-19T07:14:34;100339.44;;;12.12;73.72
55347;BME280;41218;55.700;38.270;2023-09-19T07:19:35;100336.84;;;12.22;73.68
55347;BME280;41218;55.700;38.270;2023-09-19T07:24:35;100324.81;;;12.34;73.55
55347;BME280;41218;55.700;38.270;2023-09-19T07:29:36;100332.31;;;12.53;73.41
55347;BME280;41218;55.700;38.270;2023-09-19T07:34:38;100330.94;;;12.67;73.45
55347;BME280;41218;55.700;38.270;2023-09-19T07:39:41;100333.59;;;12.82;73.38
55347;BME280;41218;55.700;38.270;2023-09-19T07:44:41;100320.31;;;12.95;72.95
55347;BME280;41218;55.700;38.270;2023-09-19T07:49:42;100314.50;;;13.04;72.93
55347;BME280;41218;55.700;38.270;2023-09-19T07:54:43;100317.06;;;13.16;72.65
55347;BME280;41218;55.700;38.270;2023-09-19T07:59:44;100320.09;;;13.31;72.62
55347;BME280;41218;55.700;38.270;2023-09-19T08:04:45;100310.41;;;13.48;72.40
55347;BME280;41218;55.700;38.270;2023-09-19T08:09:46;100308.22;;;13.64;71.96
55347;BME280;41218;55.700;38.270;2023-09-19T08:14:46;100304.78;;;13.74;71.97
55347;BME280;41218;55.700;38.270;2023-09-19T08:19:47;100301.31;;;13.81;71.81
55347;BME280;41218;55.700;38.270;2023-09-19T08:24:49;100285.94;;;13.91;71.68
55347;BME280;41218;55.700;38.270;2023-09-19T08:29:50;100287.28;;;14.04;71.62
55347;BME280;41218;55.700;38.270;2023-09-19T08:34:51;100287.00;;;14.16;71.71
55347;BME280;41218;55.700;38.270;2023-09-19T08:39:53;100285.94;;;14.28;71.30
55347;BME280;41218;55.700;38.270;2023-09-19T08:44:55;100266.16;;;14.37;71.42
55347;BME280;41218;55.700;38.270;2023-09-19T08:50:18;100261.63;;;14.59;71.47
55347;BME280;41218;55.700;38.270;2023-09-19T08:55:23;100262.97;;;14.79;70.91
55347;BME280;41218;55.700;38.270;2023-09-19T09:00:28;100271.03;;;14.95;70.68
55347;BME280;41218;55.700;38.270;2023-09-19T09:05:31;100246.03;;;15.06;70.54
55347;BME280;41218;55.700;38.270;2023-09-19T09:10:32;100247.75;;;15.21;70.34
55347;BME280;41218;55.700;38.270;2023-09-19T09:15:36;100258.19;;;15.39;70.45
55347;BME280;41218;55.700;38.270;2023-09-19T09:20:37;100242.31;;;15.54;70.20
55347;BME280;41218;55.700;38.270;2023-09-19T09:25:53;100235.59;;;15.69;69.83
55347;BME280;41218;55.700;38.270;2023-09-19T09:30:57;100228.50;;;15.79;69.80
55347;BME280;41218;55.700;38.270;2023-09-19T09:36:00;100234.09;;;15.82;69.52
55347;BME280;41218;55.700;38.270;2023-09-19T09:41:02;100234.91;;;15.90;69.59
55347;BME280;41218;55.700;38.270;2023-09-19T09:51:31;100223.75;;;15.90;69.35
55347;BME280;41218;55.700;38.270;2023-09-19T09:56:31;100230.94;;;15.98;69.31
55347;BME280;41218;55.700;38.270;2023-09-19T10:01:47;100210.22;;;15.99;69.40
55347;BME280;41218;55.700;38.270;2023-09-19T10:06:51;100202.66;;;16.07;69.27
55347;BME280;41218;55.700;38.270;2023-09-19T10:12:05;100221.41;;;16.14;69.39
55347;BME280;41218;55.700;38.270;2023-09-19T10:17:10;100209.47;;;16.20;69.23
55347;BME280;41218;55.700;38.270;2023-09-19T10:22:11;100203.47;;;16.26;69.31
55347;BME280;41218;55.700;38.270;2023-09-19T10:27:15;100194.72;;;16.38;69.45
55347;BME280;41218;55.700;38.270;2023-09-19T10:32:16;100183.19;;;16.47;69.33
55347;BME280;41218;55.700;38.270;2023-09-19T10:37:20;100186.34;;;16.52;69.21
55347;BME280;41218;55.700;38.270;2023-09-19T10:42:23;100186.75;;;16.65;68.63
55347;BME280;41218;55.700;38.270;2023-09-19T10:47:25;100187.91;;;16.78;68.70
55347;BME280;41218;55.700;38.270;2023-09-19T10:52:26;100181.97;;;16.87;68.68
55347;BME280;41218;55.700;38.270;2023-09-19T10:57:29;100170.34;;;16.92;68.40
55347;BME280;41218;55.700;38.270;2023-09-19T11:02:30;100164.78;;;16.96;68.50
55347;BME280;41218;55.700;38.270;2023-09-19T11:07:30;100165.91;;;17.13;68.46
55347;BME280;41218;55.700;38.270;2023-09-19T11:17:38;100151.47;;;17.25;68.09
55347;BME280;41218;55.700;38.270;2023-09-19T11:43:45;100145.31;;;17.66;67.35
55347;BME280;41218;55.700;38.270;2023-09-19T11:48:47;100140.13;;;17.65;67.28
55347;BME280;41218;55.700;38.270;2023-09-19T11:53:52;100133.28;;;17.69;67.17
55347;BME280;41218;55.700;38.270;2023-09-19T11:58:55;100128.81;;;17.82;67.15
55347;BME280;41218;55.700;38.270;2023-09-19T12:03:57;100130.38;;;17.91;67.07
55347;BME280;41218;55.700;38.270;2023-09-19T12:08:59;100135.13;;;17.97;66.83
55347;BME280;41218;55.700;38.270;2023-09-19T12:14:02;100127.47;;;18.05;66.65
55347;BME280;41218;55.700;38.270;2023-09-19T12:19:34;100130.56;;;18.18;66.45
55347;BME280;41218;55.700;38.270;2023-09-19T12:24:35;100119.31;;;18.25;66.40
55347;BME280;41218;55.700;38.270;2023-09-19T12:29:46;100114.91;;;18.28;66.24
55347;BME280;41218;55.700;38.270;2023-09-19T12:34:52;100111.22;;;18.34;66.20
55347;BME280;41218;55.700;38.270;2023-09-19T12:39:53;100105.97;;;18.40;66.42
55347;BME280;41218;55.700;38.270;2023-09-19T12:45:16;100100.72;;;18.46;66.12
55347;BME280;41218;55.700;38.270;2023-09-19T12:50:18;100099.88;;;18.49;66.12
55347;BME280;41218;55.700;38.270;2023-09-19T12:55:27;100092.25;;;18.53;65.89
55347;BME280;41218;55.700;38.270;2023-09-19T13:00:36;100079.84;;;18.54;65.97
55347;BME280;41218;55.700;38.270;2023-09-19T13:05:56;100081.81;;;18.57;65.88
55347;BME280;41218;55.700;38.270;2023-09-19T13:16:02;100069.91;;;18.49;65.66
55347;BME280;41218;55.700;38.270;2023-09-19T13:21:09;100058.78;;;18.42;66.02
55347;BME280;41218;55.700;38.270;2023-09-19T13:26:12;100064.38;;;18.42;66.21
55347;BME280;41218;55.700;38.270;2023-09-19T13:31:13;100052.06;;;18.36;66.26
55347;BME280;41218;55.700;38.270;2023-09-19T13:36:14;100055.53;;;18.47;66.18
55347;BME280;41218;55.700;38.270;2023-09-19T13:41:15;100041.75;;;18.29;66.39
55347;BME280;41218;55.700;38.270;2023-09-19T13:46:16;100043.31;;;18.30;66.62
55347;BME280;41218;55.700;38.270;2023-09-19T13:51:18;100037.75;;;18.27;66.63
55347;BME280;41218;55.700;38.270;2023-09-19T13:56:19;100034.91;;;18.30;66.75
55347;BME280;41218;55.700;38.270;2023-09-19T14:01:19;100029.16;;;18.45;66.66
55347;BME280;41218;55.700;38.270;2023-09-19T14:06:22;100022.81;;;18.40;66.70
55347;BME280;41218;55.700;38.270;2023-09-19T14:11:22;100017.19;;;18.44;66.74
55347;BME280;41218;55.700;38.270;2023-09-19T14:16:24;100025.94;;;18.46;66.97
55347;BME280;41218;55.700;38.270;2023-09-19T14:21:25;100025.91;;;18.50;67.11
55347;BME280;41218;55.700;38.270;2023-09-19T14:26:26;100020.34;;;18.46;67.32
55347;BME280;41218;55.700;38.270;2023-09-19T14:31:26;100015.13;;;18.48;67.25
55347;BME280;41218;55.700;38.270;2023-09-19T14:36:28;100018.78;;;18.45;67.60
55347;BME280;41218;55.700;38.270;2023-09-19T14:41:28;100008.06;;;18.36;67.55
55347;BME280;41218;55.700;38.270;2023-09-19T14:46:30;100008.06;;;18.36;67.62
55347;BME280;41218;55.700;38.270;2023-09-19T14:51:31;100004.09;;;18.34;67.61
55347;BME280;41218;55.700;38.270;2023-09-19T14:56:31;100010.59;;;18.27;67.58
55347;BME280;41218;55.700;38.270;2023-09-19T15:01:32;100007.81;;;18.24;67.81
55347;BME280;41218;55.700;38.270;2023-09-19T15:06:32;100000.16;;;18.31;67.72
55347;BME280;41218;55.700;38.270;2023-09-19T15:11:33;99997.91;;;18.15;67.70
55347;BME280;41218;55.700;38.270;2023-09-19T15:16:33;99998.78;;;18.09;67.94
55347;BME280;41218;55.700;38.270;2023-09-19T15:21:36;99993.28;;;17.98;68.24
55347;BME280;41218;55.700;38.270;2023-09-19T15:26:37;99990.94;;;17.93;68.34
55347;BME280;41218;55.700;38.270;2023-09-19T15:31:43;99993.00;;;17.85;68.27
55347;BME280;41218;55.700;38.270;2023-09-19T15:36:44;99988.28;;;17.75;68.52
55347;BME280;41218;55.700;38.270;2023-09-19T15:41:45;99986.63;;;17.81;68.32
55347;BME280;41218;55.700;38.270;2023-09-19T15:46:46;99987.88;;;17.76;68.24
55347;BME280;41218;55.700;38.270;2023-09-19T15:51:46;99982.47;;;17.55;68.37
55347;BME280;41218;55.700;38.270;2023-09-19T15:56:47;99978.88;;;17.54;68.42
55347;BME280;41218;55.700;38.270;2023-09-19T16:01:48;99987.31;;;17.47;68.24
55347;BME280;41218;55.700;38.270;2023-09-19T16:06:50;99987.06;;;17.27;68.54
55347;BME280;41218;55.700;38.270;2023-09-19T16:11:53;99985.19;;;17.13;68.59
55347;BME280;41218;55.700;38.270;2023-09-19T16:16:53;99989.94;;;17.16;68.68
55347;BME280;41218;55.700;38.270;2023-09-19T16:21:54;99981.25;;;17.00;68.54
55347;BME280;41218;55.700;38.270;2023-09-19T16:26:56;99986.53;;;16.87;68.84
55347;BME280;41218;55.700;38.270;2023-09-19T16:31:57;99985.75;;;16.76;69.11
55347;BME280;41218;55.700;38.270;2023-09-19T16:36:57;99992.53;;;16.82;69.09
55347;BME280;41218;55.700;38.270;2023-09-19T16:41:58;99998.53;;;16.66;69.15
55347;BME280;41218;55.700;38.270;2023-09-19T16:46:58;99999.34;;;16.67;69.03
55347;BME280;41218;55.700;38.270;2023-09-19T16:51:59;99987.44;;;16.48;69.26
55347;BME280;41218;55.700;38.270;2023-09-19T16:56:59;99999.81;;;16.51;69.16
55347;BME280;41218;55.700;38.270;2023-09-19T17:02:00;99999.47;;;16.34;69.25
55347;BME280;41218;55.700;38.270;2023-09-19T17:07:00;100002.25;;;16.34;69.10
55347;BME280;41218;55.700;38.270;2023-09-19T17:12:01;100006.28;;;16.19;69.29
55347;BME280;41218;55.700;38.270;2023-09-19T17:17:05;100005.09;;;16.09;69.44
55347;BME280;41218;55.700;38.270;2023-09-19T17:22:05;100006.69;;;16.10;69.42
55347;BME280;41218;55.700;38.270;2023-09-19T17:27:06;100010.31;;;15.93;69.29
55347;BME280;41218;55.700;38.270;2023-09-19T17:32:06;100006.34;;;15.94;69.46
55347;BME280;41218;55.700;38.270;2023-09-19T17:37:07;100009.13;;;15.79;69.64
55347;BME280;41218;55.700;38.270;2023-09-19T17:42:09;100001.16;;;15.63;69.57
55347;BME280;41218;55.700;38.270;2023-09-19T17:47:12;99995.97;;;15.62;69.70
55347;BME280;41218;55.700;38.270;2023-09-19T17:52:14;100000.72;;;15.54;69.81
55347;BME280;41218;55.700;38.270;2023-09-19T17:57:19;99983.25;;;15.43;69.90
55347;BME280;41218;55.700;38.270;2023-09-19T18:02:20;99997.16;;;15.39;69.92
55347;BME280;41218;55.700;38.270;2023-09-19T18:07:20;100006.28;;;15.36;69.96
55347;BME280;41218;55.700;38.270;2023-09-19T18:12:21;100002.34;;;15.41;69.69
55347;BME280;41218;55.700;38.270;2023-09-19T18:17:22;100007.06;;;15.26;69.67
55347;BME280;41218;55.700;38.270;2023-09-19T18:22:23;100002.28;;;15.16;69.84
55347;BME280;41218;55.700;38.270;2023-09-19T18:27:24;99997.88;;;15.04;69.80
55347;BME280;41218;55.700;38.270;2023-09-19T18:32:25;100000.25;;;15.02;69.96
55347;BME280;41218;55.700;38.270;2023-09-19T18:37:28;99997.88;;;14.97;69.88
55347;BME280;41218;55.700;38.270;2023-09-19T18:42:28;99989.91;;;14.88;70.02
55347;BME280;41218;55.700;38.270;2023-09-19T18:47:29;99994.66;;;14.80;70.10
55347;BME280;41218;55.700;38.270;2023-09-19T18:52:30;99991.06;;;14.80;70.02
55347;BME280;41218;55.700;38.270;2023-09-19T18:57:30;99989.47;;;14.75;70.11
55347;BME280;41218;55.700;38.270;2023-09-19T19:02:32;100000.97;;;14.70;70.18
55347;BME280;41218;55.700;38.270;2023-09-19T19:07:32;99988.63;;;14.64;70.36
55347;BME280;41218;55.700;38.270;2023-09-19T19:12:35;99989.00;;;14.59;70.38
55347;BME280;41218;55.700;38.270;2023-09-19T19:17:36;99986.16;;;14.55;70.27
55347;BME280;41218;55.700;38.270;2023-09-19T19:22:37;99984.22;;;14.56;70.46
55347;BME280;41218;55.700;38.270;2023-09-19T19:27:38;99983.00;;;14.50;70.33
55347;BME280;41218;55.700;38.270;2023-09-19T19:32:38;99981.75;;;14.47;70.35
55347;BME280;41218;55.700;38.270;2023-09-19T19:37:39;99980.94;;;14.43;70.38
55347;BME280;41218;55.700;38.270;2023-09-19T19:42:39;99980.94;;;14.39;70.21
55347;BME280;41218;55.700;38.270;2023-09-19T19:47:40;99988.06;;;14.33;70.47
55347;BME280;41218;55.700;38.270;2023-09-19T19:52:40;99989.59;;;14.27;70.50
55347;BME280;41218;55.700;38.270;2023-09-19T19:57:41;99989.19;;;14.25;70.24
55347;BME280;41218;55.700;38.270;2023-09-19T20:02:43;99986.00;;;14.16;70.38
55347;BME280;41218;55.700;38.270;2023-09-19T20:07:45;99987.97;;;14.12;70.39
55347;BME280;41218;55.700;38.270;2023-09-19T20:12:45;99983.16;;;14.09;70.46
55347;BME280;41218;55.700;38.270;2023-09-19T20:17:48;99980.69;;;13.96;70.49
55347;BME280;41218;55.700;38.270;2023-09-19T20:22:49;99993.84;;;13.99;70.30
55347;BME280;41218;55.700;38.270;2023-09-19T20:27:50;99998.56;;;13.95;70.59
55347;BME280;41218;55.700;38.270;2023-09-19T20:32:51;100000.53;;;13.91;70.53
55347;BME280;41218;55.700;38.270;2023-09-19T20:37:52;99994.94;;;13.88;70.84
55347;BME280;41218;55.700;38.270;2023-09-19T20:43:00;99984.97;;;13.79;70.69
55347;BME280;41218;55.700;38.270;2023-09-19T20:48:00;100000.84;;;13.79;70.62
55347;BME280;41218;55.700;38.270;2023-09-19T20:53:01;99998.41;;;13.74;70.70
55347;BME280;41218;55.700;38.270;2023-09-19T20:58:02;100001.16;;;13.70;70.53
55347;BME280;41218;55.700;38.270;2023-09-19T21:03:03;99999.13;;;13.63;70.63
55347;BME280;41218;55.700;38.270;2023-09-19T21:08:03;99997.88;;;13.57;70.60
55347;BME280;41218;55.700;38.270;2023-09-19T21:13:05;99994.66;;;13.52;70.65
55347;BME280;41218;55.700;38.270;2023-09-19T21:18:07;99988.28;;;13.48;70.80
55347;BME280;41218;55.700;38.270;2023-09-19T21:23:07;99980.31;;;13.42;70.72
55347;BME280;41218;55.700;38.270;2023-09-19T21:28:16;99996.94;;;13.39;70.82
55347;BME280;41218;55.700;38.270;2023-09-19T21:33:17;99986.16;;;13.34;70.84
55347;BME280;41218;55.700;38.270;2023-09-19T21:38:18;99984.91;;;13.28;70.54
55347;BME280;41218;55.700;38.270;2023-09-19T21:43:19;99980.88;;;13.18;70.64
55347;BME280;41218;55.700;38.270;2023-09-19T21:48:20;99986.84;;;13.20;70.71
55347;BME280;41218;55.700;38.270;2023-09-19T21:53:22;99982.75;;;13.10;70.78
55347;BME280;41218;55.700;38.270;2023-09-19T21:58:23;99990.69;;;13.12;70.78
55347;BME280;41218;55.700;38.270;2023-09-19T22:03:24;99983.50;;;13.07;70.68
55347;BME280;41218;55.700;38.270;2023-09-19T22:08:25;99983.47;;;13.03;70.64
55347;BME280;41218;55.700;38.270;2023-09-19T22:13:26;99977.50;;;12.98;70.64
55347;BME280;41218;55.700;38.270;2023-09-19T22:18:30;99979.81;;;12.92;70.76
55347;BME280;41218;55.700;38.270;2023-09-19T22:23:35;99976.97;;;12.89;70.92
55347;BME280;41218;55.700;38.270;2023-09-19T22:28:36;99981.28;;;12.82;70.87
55347;BME280;41218;55.700;38.270;2023-09-19T22:33:41;99975.25;;;12.77;70.69
55347;BME280;41218;55.700;38.270;2023-09-19T22:38:41;99985.25;;;12.85;70.79
55347;BME280;41218;55.700;38.270;2023-09-19T22:43:44;99975.63;;;12.72;70.57
55347;BME280;41218;55.700;38.270;2023-09-19T22:48:51;99968.41;;;12.63;70.67
55347;BME280;41218;55.700;38.270;2023-09-19T22:53:52;99973.91;;;12.60;70.81
55347;BME280;41218;55.700;38.270;2023-09-19T22:58:58;99980.19;;;12.57;70.63
55347;BME280;41218;55.700;38.270;2023-09-19T23:03:59;99972.69;;;12.61;70.74
55347;BME280;41218;55.700;38.270;2023-09-19T23:09:08;99969.38;;;12.48;70.67
55347;BME280;41218;55.700;38.270;2023-09-19T23:14:09;99967.28;;;12.38;70.52
55347;BME280;41218;55.700;38.270;2023-09-19T23:19:09;99962.47;;;12.31;70.75
55347;BME280;41218;55.700;38.270;2023-09-19T23:24:31;99954.03;;;12.24;70.90
55347;BME280;41218;55.700;38.270;2023-09-19T23:29:34;99975.09;;;12.29;70.87
55347;BME280;41218;55.700;38.270;2023-09-19T23:34:40;99975.84;;;12.26;70.85
55347;BME280;41218;55.700;38.270;2023-09-19T23:39:41;99962.69;;;12.19;70.81
55347;BME280;41218;55.700;38.270;2023-09-19T23:44:42;99969.03;;;12.19;71.00
55347;BME280;41218;55.700;38.270;2023-09-19T23:49:44;99972.16;;;12.18;70.96
55347;BME280;41218;55.700;38.270;2023-09-19T23:54:47;99959.81;;;12.12;71.04
55347;BME280;41218;55.700;38.270;2023-09-19T23:59:48;99970.53;;;12.13;71.07
